createdAt,value
2023-02-14T00:00:36.182Z,2.17
2023-02-14T00:02:59.114Z,2.16
2023-02-14T00:05:21.671Z,2.21
2023-02-14T00:07:45.012Z,2.17
2023-02-14T00:10:08.821Z,2.21
2023-02-14T00:12:31.592Z,2.24
2023-02-14T00:15:12.900Z,2.20
2023-02-14T00:17:35.692Z,2.16
2023-02-14T00:19:58.559Z,2.20
2023-02-14T00:22:21.140Z,2.23
2023-02-14T00:24:43.831Z,2.27
2023-02-14T00:27:06.479Z,2.37
2023-02-14T00:29:31.956Z,2.33
2023-02-14T00:31:55.652Z,2.31
2023-02-14T00:34:19.899Z,2.29
2023-02-14T00:36:43.179Z,2.30
2023-02-14T00:39:07.860Z,2.33
2023-02-14T00:41:32.904Z,2.31
2023-02-14T00:43:55.614Z,2.27
2023-02-14T00:46:21.350Z,2.31
2023-02-14T00:48:44.365Z,2.42
2023-02-14T00:51:07.483Z,2.34
2023-02-14T00:53:30.196Z,2.34
2023-02-14T00:55:52.745Z,2.34
2023-02-14T00:58:15.397Z,2.41
2023-02-14T01:00:38.039Z,2.45
2023-02-14T01:03:00.722Z,2.52
2023-02-14T01:05:25.014Z,2.58
2023-02-14T01:07:47.770Z,2.54
2023-02-14T01:10:10.762Z,2.48
2023-02-14T01:12:33.368Z,2.57
2023-02-14T01:14:56.874Z,2.61
2023-02-14T01:17:19.499Z,2.57
2023-02-14T01:19:43.607Z,2.60
2023-02-14T01:22:06.183Z,2.64
2023-02-14T01:24:28.769Z,2.58
2023-02-14T01:26:51.387Z,2.54
2023-02-14T01:29:13.997Z,2.54
2023-02-14T01:31:36.840Z,2.55
2023-02-14T01:34:00.389Z,2.50
2023-02-14T01:36:35.286Z,2.50
2023-02-14T01:39:01.152Z,2.48
2023-02-14T01:41:25.149Z,2.47
2023-02-14T01:43:56.539Z,2.36
2023-02-14T01:46:19.877Z,2.34
2023-02-14T01:48:42.601Z,2.38
2023-02-14T01:51:05.432Z,2.33
2023-02-14T01:53:29.410Z,2.23
2023-02-14T01:56:03.234Z,2.27
2023-02-14T01:58:29.568Z,2.24
2023-02-14T02:00:58.675Z,2.24
2023-02-14T02:03:22.918Z,2.13
2023-02-14T02:05:50.352Z,2.14
2023-02-14T02:08:13.555Z,2.13
2023-02-14T02:10:36.190Z,2.07
2023-02-14T02:13:04.088Z,2.00
2023-02-14T02:15:29.264Z,1.89
2023-02-14T02:18:19.190Z,1.79
2023-02-14T02:21:19.826Z,1.81
2023-02-14T02:23:54.654Z,1.86
2023-02-14T02:26:48.394Z,1.92
2023-02-14T02:29:43.262Z,1.92
2023-02-14T02:32:14.659Z,1.82
2023-02-14T02:35:10.255Z,1.78
2023-02-14T02:37:40.535Z,1.83
2023-02-14T02:40:43.721Z,1.82
2023-02-14T02:43:35.567Z,1.82
2023-02-14T02:46:23.703Z,1.91
2023-02-14T02:49:41.428Z,1.99
2023-02-14T02:52:29.779Z,2.05
2023-02-14T02:54:59.890Z,2.10
2023-02-14T02:57:28.366Z,2.12
2023-02-14T02:59:53.839Z,2.09
2023-02-14T03:02:22.082Z,2.12
2023-02-14T03:04:55.970Z,2.17
2023-02-14T03:07:40.584Z,2.13
2023-02-14T03:10:23.737Z,2.07
2023-02-14T03:13:21.662Z,2.05
2023-02-14T03:15:52.736Z,2.10
2023-02-14T03:19:12.774Z,2.16
2023-02-14T03:21:46.542Z,2.05
2023-02-14T03:24:33.737Z,2.06
2023-02-14T03:27:18.335Z,2.09
2023-02-14T03:30:07.750Z,2.12
2023-02-14T03:32:38.281Z,2.07
2023-02-14T03:35:07.826Z,2.05
2023-02-14T03:37:40.535Z,2.05
2023-02-14T03:40:13.280Z,2.06
2023-02-14T03:42:41.790Z,2.05
2023-02-14T03:45:08.178Z,2.07
2023-02-14T03:47:34.352Z,1.92
2023-02-14T03:50:02.402Z,1.98
2023-02-14T03:52:28.887Z,1.99
2023-02-14T03:54:55.813Z,2.05
2023-02-14T03:57:23.741Z,2.00
2023-02-14T03:59:47.165Z,1.98
2023-02-14T04:02:17.504Z,1.99
2023-02-14T04:04:44.223Z,1.96
2023-02-14T04:07:21.319Z,1.83
2023-02-14T04:09:44.785Z,1.89
2023-02-14T04:12:08.176Z,1.87
2023-02-14T04:14:30.834Z,1.87
2023-02-14T04:17:11.750Z,1.89
2023-02-14T04:19:34.484Z,1.82
2023-02-14T04:21:57.247Z,1.93
2023-02-14T04:24:20.200Z,1.85
2023-02-14T04:26:54.150Z,1.86
2023-02-14T04:29:17.011Z,1.76
2023-02-14T04:31:39.740Z,1.73
2023-02-14T04:34:02.437Z,1.73
2023-02-14T04:36:25.042Z,1.73
2023-02-14T04:38:48.347Z,1.78
2023-02-14T04:41:10.953Z,1.72
2023-02-14T04:43:33.612Z,1.71
2023-02-14T04:45:56.249Z,1.76
2023-02-14T04:48:18.855Z,1.78
2023-02-14T04:50:41.437Z,1.72
2023-02-14T04:53:04.956Z,1.82
2023-02-14T04:55:27.558Z,1.78
2023-02-14T04:57:50.459Z,1.75
2023-02-14T05:00:13.760Z,1.75
2023-02-14T05:02:36.343Z,1.79
2023-02-14T05:04:58.914Z,1.72
2023-02-14T05:07:21.492Z,1.66
2023-02-14T05:09:44.041Z,1.72
2023-02-14T05:12:07.081Z,1.66
2023-02-14T05:14:31.565Z,1.59
2023-02-14T05:16:54.259Z,1.56
2023-02-14T05:19:16.830Z,1.62
2023-02-14T05:21:39.628Z,1.75
2023-02-14T05:24:02.578Z,1.75
2023-02-14T05:26:25.263Z,1.72
2023-02-14T05:28:47.832Z,1.76
2023-02-14T05:31:10.713Z,1.69
2023-02-14T05:33:33.361Z,1.68
2023-02-14T05:35:59.919Z,1.61
2023-02-14T05:38:22.555Z,1.55
2023-02-14T05:40:45.522Z,1.48
2023-02-14T05:43:08.251Z,1.45
2023-02-14T05:45:31.150Z,1.45
2023-02-14T05:47:54.151Z,1.44
2023-02-14T05:50:18.016Z,1.38
2023-02-14T05:52:40.689Z,1.48
2023-02-14T05:55:04.167Z,1.56
2023-02-14T05:57:26.885Z,1.51
2023-02-14T05:59:49.595Z,1.58
2023-02-14T06:02:12.294Z,1.76
2023-02-14T06:04:35.000Z,1.95
2023-02-14T06:06:58.909Z,1.98
2023-02-14T06:09:21.603Z,2.03
2023-02-14T06:11:44.284Z,2.00
2023-02-14T06:14:06.990Z,2.23
2023-02-14T06:16:29.678Z,2.29
2023-02-14T06:18:52.415Z,2.34
2023-02-14T06:21:15.077Z,2.50
2023-02-14T06:23:37.689Z,2.61
2023-02-14T06:26:00.486Z,2.66
2023-02-14T06:28:23.447Z,2.85
2023-02-14T06:30:47.179Z,3.03
2023-02-14T06:33:09.941Z,3.07
2023-02-14T06:35:32.710Z,3.12
2023-02-14T06:37:55.608Z,3.15
2023-02-14T06:40:19.813Z,3.28
2023-02-14T06:42:42.714Z,3.43
2023-02-14T06:45:06.478Z,3.67
2023-02-14T06:47:29.314Z,3.99
2023-02-14T06:49:52.065Z,4.32
2023-02-14T06:52:14.793Z,4.37
2023-02-14T06:54:37.581Z,4.43
2023-02-14T06:57:00.420Z,4.56
2023-02-14T06:59:23.194Z,4.98
2023-02-14T07:01:46.380Z,4.79
2023-02-14T07:04:09.090Z,5.32
2023-02-14T07:06:33.420Z,5.67
2023-02-14T07:08:57.220Z,6.11
2023-02-14T07:11:20.657Z,6.85
2023-02-14T07:13:44.077Z,7.63
2023-02-14T07:16:06.903Z,8.09
2023-02-14T07:18:29.655Z,8.63
2023-02-14T07:20:52.656Z,8.46
2023-02-14T07:23:15.469Z,8.84
2023-02-14T07:25:38.273Z,9.29
2023-02-14T07:28:01.298Z,9.48
2023-02-14T07:30:24.305Z,9.57
2023-02-14T07:32:47.464Z,9.21
2023-02-14T07:35:14.948Z,9.28
2023-02-14T07:37:38.351Z,9.12
2023-02-14T07:40:01.386Z,8.64
2023-02-14T07:42:24.487Z,7.99
2023-02-14T07:44:47.147Z,7.77
2023-02-14T07:47:10.624Z,7.39
2023-02-14T07:49:33.564Z,6.99
2023-02-14T07:51:57.499Z,6.97
2023-02-14T07:54:20.472Z,6.91
2023-02-14T07:56:44.461Z,6.73
2023-02-14T07:59:09.984Z,6.57
2023-02-14T08:01:32.772Z,6.42
2023-02-14T08:03:55.688Z,6.44
2023-02-14T08:06:20.003Z,6.21
2023-02-14T08:08:42.760Z,5.97
2023-02-14T08:11:05.692Z,5.87
2023-02-14T08:13:28.645Z,6.16
2023-02-14T08:16:07.656Z,6.16
2023-02-14T08:18:32.819Z,6.08
2023-02-14T08:20:56.031Z,6.15
2023-02-14T08:23:20.294Z,6.08
2023-02-14T08:25:42.969Z,6.33
2023-02-14T08:28:06.951Z,6.23
2023-02-14T08:30:30.363Z,6.26
2023-02-14T08:32:53.543Z,6.39
2023-02-14T08:35:16.273Z,5.71
2023-02-14T08:37:38.990Z,5.84
2023-02-14T08:40:01.742Z,5.50
2023-02-14T08:42:24.483Z,5.48
2023-02-14T08:44:47.192Z,5.81
2023-02-14T08:47:09.962Z,5.79
2023-02-14T08:49:33.064Z,5.94
2023-02-14T08:51:55.914Z,6.09
2023-02-14T08:54:18.572Z,6.15
2023-02-14T08:56:42.120Z,6.04
2023-02-14T08:59:04.828Z,6.05
2023-02-14T09:01:29.209Z,6.13
2023-02-14T09:03:55.943Z,6.19
2023-02-14T09:06:18.760Z,6.08
2023-02-14T09:08:42.228Z,6.02
2023-02-14T09:11:08.899Z,6.32
2023-02-14T09:13:31.716Z,6.25
2023-02-14T09:15:54.708Z,6.34
2023-02-14T09:18:17.646Z,6.34
2023-02-14T09:20:40.556Z,6.53
2023-02-14T09:23:03.270Z,6.54
2023-02-14T09:25:25.978Z,6.60
2023-02-14T09:27:48.670Z,6.57
2023-02-14T09:30:12.367Z,6.60
2023-02-14T09:32:35.352Z,6.74
2023-02-14T09:34:58.486Z,6.83
2023-02-14T09:37:40.284Z,6.76
2023-02-14T09:40:03.138Z,6.67
2023-02-14T09:42:37.983Z,6.63
2023-02-14T09:45:12.361Z,6.74
2023-02-14T09:47:41.177Z,6.76
2023-02-14T09:50:28.274Z,6.83
2023-02-14T09:52:57.278Z,7.08
2023-02-14T09:55:20.304Z,7.01
2023-02-14T09:58:04.227Z,7.36
2023-02-14T10:00:36.464Z,7.60
2023-02-14T10:03:13.583Z,7.76
2023-02-14T10:05:42.243Z,8.02
2023-02-14T10:08:36.001Z,7.76
2023-02-14T10:11:06.924Z,7.63
2023-02-14T10:13:31.911Z,7.78
2023-02-14T10:16:26.999Z,7.67
2023-02-14T10:18:59.489Z,7.85
2023-02-14T10:21:55.501Z,8.02
2023-02-14T10:24:30.028Z,8.09
2023-02-14T10:26:57.863Z,8.21
2023-02-14T10:29:22.162Z,8.35
2023-02-14T10:31:55.850Z,8.20
2023-02-14T10:34:40.554Z,8.08
2023-02-14T10:37:08.717Z,8.24
2023-02-14T10:39:46.362Z,8.52
2023-02-14T10:42:36.978Z,8.32
2023-02-14T10:45:02.681Z,8.56
2023-02-14T10:48:10.735Z,8.63
2023-02-14T10:50:36.487Z,8.46
2023-02-14T10:53:26.439Z,8.29
2023-02-14T10:55:53.896Z,8.42
2023-02-14T10:58:20.246Z,8.36
2023-02-14T11:01:00.555Z,8.69
2023-02-14T11:03:24.415Z,8.88
2023-02-14T11:05:48.970Z,8.98
2023-02-14T11:08:20.544Z,9.05
2023-02-14T11:10:44.000Z,9.24
2023-02-14T11:13:45.849Z,9.08
2023-02-14T11:16:11.890Z,9.18
2023-02-14T11:18:36.527Z,8.88
2023-02-14T11:21:02.165Z,8.90
2023-02-14T11:23:25.956Z,8.83
2023-02-14T11:25:52.602Z,9.00
2023-02-14T11:28:18.959Z,8.98
2023-02-14T11:30:46.111Z,8.88
2023-02-14T11:33:40.719Z,9.07
2023-02-14T11:36:06.314Z,9.35
2023-02-14T11:38:36.859Z,9.19
2023-02-14T11:41:00.544Z,9.36
2023-02-14T11:43:36.718Z,9.48
2023-02-14T11:46:26.453Z,9.60
2023-02-14T11:48:56.586Z,9.52
2023-02-14T11:51:20.420Z,9.42
2023-02-14T11:53:50.837Z,9.60
2023-02-14T11:56:18.676Z,9.63
2023-02-14T11:58:49.545Z,9.57
2023-02-14T12:01:22.190Z,9.72
2023-02-14T12:03:49.496Z,9.50
2023-02-14T12:06:13.649Z,9.56
2023-02-14T12:08:39.187Z,9.48
2023-02-14T12:11:17.936Z,9.28
2023-02-14T12:13:40.913Z,9.38
2023-02-14T12:16:03.990Z,9.63
2023-02-14T12:18:53.087Z,9.80
2023-02-14T12:21:30.862Z,9.82
2023-02-14T12:24:21.658Z,10.07
2023-02-14T12:26:50.836Z,9.89
2023-02-14T12:29:22.384Z,9.75
2023-02-14T12:31:47.053Z,9.75
2023-02-14T12:34:13.166Z,9.93
2023-02-14T12:37:19.758Z,10.42
2023-02-14T12:39:59.327Z,10.77
2023-02-14T12:42:43.027Z,11.03
2023-02-14T12:45:25.920Z,10.89
2023-02-14T12:48:19.624Z,10.93
2023-02-14T12:51:01.590Z,10.92
2023-02-14T12:53:53.810Z,10.90
2023-02-14T12:56:25.197Z,10.88
2023-02-14T12:59:06.680Z,10.88
2023-02-14T13:01:41.426Z,10.92
2023-02-14T13:04:20.795Z,10.79
2023-02-14T13:06:50.619Z,10.68
2023-02-14T13:09:34.911Z,10.40
2023-02-14T13:12:41.167Z,10.08
2023-02-14T13:15:19.089Z,10.08
2023-02-14T13:18:05.408Z,9.97
2023-02-14T13:20:55.830Z,9.84
2023-02-14T13:23:28.739Z,9.79
2023-02-14T13:25:59.574Z,9.94
2023-02-14T13:28:22.471Z,9.80
2023-02-14T13:30:45.513Z,9.89
2023-02-14T13:33:15.388Z,9.87
2023-02-14T13:35:38.610Z,9.98
2023-02-14T13:38:06.754Z,9.97
2023-02-14T13:40:31.381Z,10.22
2023-02-14T13:43:02.143Z,10.27
2023-02-14T13:45:37.915Z,10.32
2023-02-14T13:48:25.771Z,10.37
2023-02-14T13:51:04.853Z,10.25
2023-02-14T13:53:39.542Z,10.18
2023-02-14T13:56:22.379Z,10.22
2023-02-14T13:58:52.640Z,10.24
2023-02-14T14:01:37.601Z,10.31
2023-02-14T14:04:28.385Z,10.01
2023-02-14T14:07:03.045Z,10.20
2023-02-14T14:09:40.628Z,10.31
2023-02-14T14:12:04.001Z,10.08
2023-02-14T14:14:30.408Z,10.07
2023-02-14T14:17:00.903Z,10.15
2023-02-14T14:19:23.539Z,9.93
2023-02-14T14:22:08.493Z,9.93
2023-02-14T14:24:32.955Z,9.77
2023-02-14T14:27:00.042Z,9.66
2023-02-14T14:29:29.023Z,9.57
2023-02-14T14:31:56.258Z,9.43
2023-02-14T14:34:24.992Z,9.39
2023-02-14T14:36:48.790Z,9.38
2023-02-14T14:39:11.687Z,9.34
2023-02-14T14:41:34.487Z,9.12
2023-02-14T14:43:59.912Z,9.11
2023-02-14T14:46:22.889Z,9.15
2023-02-14T14:48:54.501Z,9.07
2023-02-14T14:51:33.457Z,8.92
2023-02-14T14:54:08.104Z,8.88
2023-02-14T14:56:37.289Z,8.73
2023-02-14T14:59:39.319Z,8.88
2023-02-14T15:02:03.960Z,8.64
2023-02-14T15:04:30.438Z,8.57
2023-02-14T15:06:55.193Z,8.62
2023-02-14T15:09:24.185Z,8.69
2023-02-14T15:12:06.459Z,8.43
2023-02-14T15:14:32.893Z,8.42
2023-02-14T15:17:01.478Z,8.38
2023-02-14T15:19:33.553Z,8.45
2023-02-14T15:21:56.130Z,8.49
2023-02-14T15:24:20.044Z,8.36
2023-02-14T15:26:45.022Z,8.35
2023-02-14T15:29:07.781Z,8.41
2023-02-14T15:31:37.205Z,8.39
2023-02-14T15:34:02.834Z,8.14
2023-02-14T15:36:26.535Z,8.02
2023-02-14T15:38:49.652Z,7.77
2023-02-14T15:41:14.147Z,7.64
2023-02-14T15:43:37.821Z,7.50
2023-02-14T15:46:39.387Z,7.50
2023-02-14T15:49:09.244Z,7.52
2023-02-14T15:51:35.904Z,7.16
2023-02-14T15:54:18.869Z,7.08
2023-02-14T15:57:02.246Z,6.88
2023-02-14T15:59:31.064Z,6.77
2023-02-14T16:02:33.245Z,6.71
2023-02-14T16:05:04.275Z,6.54
2023-02-14T16:07:30.614Z,6.56
2023-02-14T16:10:18.342Z,6.34
2023-02-14T16:12:44.208Z,6.22
2023-02-14T16:15:27.975Z,6.11
2023-02-14T16:17:50.805Z,6.04
2023-02-14T16:20:25.934Z,6.04
2023-02-14T16:22:49.709Z,5.90
2023-02-14T16:25:12.344Z,5.78
2023-02-14T16:27:35.201Z,5.68
2023-02-14T16:29:58.833Z,5.64
2023-02-14T16:32:24.013Z,5.61
2023-02-14T16:34:47.619Z,5.56
2023-02-14T16:37:38.444Z,5.47
2023-02-14T16:40:02.070Z,5.39
2023-02-14T16:42:25.422Z,5.42
2023-02-14T16:44:48.627Z,5.33
2023-02-14T16:47:16.273Z,5.32
2023-02-14T16:49:40.433Z,5.25
2023-02-14T16:52:03.196Z,5.20
2023-02-14T16:54:27.061Z,5.08
2023-02-14T16:57:05.407Z,5.08
2023-02-14T16:59:28.592Z,4.99
2023-02-14T17:01:51.721Z,4.96
2023-02-14T17:04:15.115Z,4.88
2023-02-14T17:06:40.699Z,4.84
2023-02-14T17:09:09.411Z,4.92
2023-02-14T17:11:37.500Z,4.96
2023-02-14T17:14:00.332Z,4.88
2023-02-14T17:16:23.591Z,4.85
2023-02-14T17:18:49.595Z,4.60
2023-02-14T17:21:12.779Z,4.57
2023-02-14T17:23:35.693Z,4.56
2023-02-14T17:25:58.475Z,4.39
2023-02-14T17:28:21.913Z,4.23
2023-02-14T17:30:44.870Z,4.23
2023-02-14T17:33:08.305Z,4.09
2023-02-14T17:35:33.411Z,4.23
2023-02-14T17:37:56.312Z,4.17
2023-02-14T17:40:19.397Z,4.22
2023-02-14T17:42:45.964Z,4.16
2023-02-14T17:45:11.828Z,4.10
2023-02-14T17:47:35.194Z,3.92
2023-02-14T17:49:58.370Z,3.89
2023-02-14T17:52:22.218Z,3.91
2023-02-14T17:54:45.025Z,3.88
2023-02-14T17:57:07.741Z,3.85
2023-02-14T17:59:34.079Z,3.79
2023-02-14T18:01:56.911Z,3.79
2023-02-14T18:04:19.646Z,3.85
2023-02-14T18:06:43.190Z,3.84
2023-02-14T18:09:06.872Z,3.81
2023-02-14T18:11:29.891Z,3.71
2023-02-14T18:13:59.026Z,3.71
2023-02-14T18:16:22.016Z,3.71
2023-02-14T18:18:46.039Z,3.74
2023-02-14T18:21:11.121Z,3.78
2023-02-14T18:23:33.755Z,3.78
2023-02-14T18:25:58.787Z,3.79
2023-02-14T18:28:22.922Z,3.71
2023-02-14T18:30:47.546Z,3.68
2023-02-14T18:33:10.232Z,3.60
2023-02-14T18:35:34.887Z,3.67
2023-02-14T18:37:59.180Z,3.63
2023-02-14T18:40:22.282Z,3.51
2023-02-14T18:42:44.840Z,3.48
2023-02-14T18:45:08.344Z,3.47
2023-02-14T18:47:31.144Z,3.48
2023-02-14T18:49:54.327Z,3.41
2023-02-14T18:52:17.280Z,3.43
2023-02-14T18:54:40.270Z,3.38
2023-02-14T18:57:03.345Z,3.20
2023-02-14T18:59:26.402Z,3.36
2023-02-14T19:01:49.770Z,3.28
2023-02-14T19:04:13.752Z,3.22
2023-02-14T19:06:37.085Z,3.13
2023-02-14T19:09:01.542Z,3.15
2023-02-14T19:11:28.694Z,3.10
2023-02-14T19:13:54.453Z,3.03
2023-02-14T19:16:20.439Z,3.16
2023-02-14T19:18:43.579Z,3.12
2023-02-14T19:21:14.127Z,3.15
2023-02-14T19:23:37.522Z,3.07
2023-02-14T19:26:09.538Z,2.99
2023-02-14T19:28:32.477Z,2.92
2023-02-14T19:30:59.521Z,2.92
2023-02-14T19:33:22.722Z,2.85
2023-02-14T19:35:45.724Z,2.85
2023-02-14T19:38:08.933Z,2.85
2023-02-14T19:40:33.068Z,2.91
2023-02-14T19:42:56.026Z,2.98
2023-02-14T19:45:19.439Z,2.92
2023-02-14T19:47:46.987Z,2.91
2023-02-14T19:50:11.782Z,2.86
2023-02-14T19:52:35.699Z,2.82
2023-02-14T19:55:00.657Z,2.86
2023-02-14T19:57:24.823Z,2.88
2023-02-14T19:59:48.179Z,2.79
2023-02-14T20:02:15.014Z,2.84
2023-02-14T20:04:37.854Z,2.81
2023-02-14T20:07:01.321Z,2.75
2023-02-14T20:09:24.781Z,2.75
2023-02-14T20:11:54.438Z,2.84
2023-02-14T20:14:24.950Z,2.78
2023-02-14T20:16:51.229Z,2.72
2023-02-14T20:19:17.149Z,2.64
2023-02-14T20:21:42.075Z,2.54
2023-02-14T20:24:06.140Z,2.55
2023-02-14T20:26:30.591Z,2.45
2023-02-14T20:28:53.743Z,2.40
2023-02-14T20:31:20.556Z,2.44
2023-02-14T20:33:43.484Z,2.40
2023-02-14T20:36:07.037Z,2.33
2023-02-14T20:38:30.371Z,2.41
2023-02-14T20:40:54.448Z,2.36
2023-02-14T20:43:18.490Z,2.36
2023-02-14T20:45:41.996Z,2.41
2023-02-14T20:48:07.033Z,2.31
2023-02-14T20:50:31.615Z,2.31
2023-02-14T20:52:55.358Z,2.26
2023-02-14T20:55:21.787Z,2.27
2023-02-14T20:57:44.449Z,2.24
2023-02-14T21:00:09.136Z,2.13
2023-02-14T21:02:34.157Z,2.24
2023-02-14T21:05:00.295Z,2.21
2023-02-14T21:07:23.279Z,2.21
2023-02-14T21:09:46.602Z,2.20
2023-02-14T21:12:09.792Z,2.21
2023-02-14T21:14:34.580Z,2.23
2023-02-14T21:16:57.514Z,2.23
2023-02-14T21:19:20.784Z,2.17
2023-02-14T21:21:43.751Z,2.14
2023-02-14T21:24:14.611Z,2.12
2023-02-14T21:26:37.816Z,2.16
2023-02-14T21:29:02.650Z,2.21
2023-02-14T21:31:27.171Z,2.23
2023-02-14T21:33:53.583Z,2.17
2023-02-14T21:36:20.089Z,2.17
2023-02-14T21:38:46.623Z,2.16
2023-02-14T21:41:19.463Z,2.16
2023-02-14T21:43:45.462Z,2.17
2023-02-14T21:46:20.396Z,2.16
2023-02-14T21:49:03.473Z,2.17
2023-02-14T21:51:36.398Z,2.13
2023-02-14T21:54:05.781Z,2.09
2023-02-14T21:56:29.291Z,2.02
2023-02-14T21:58:57.188Z,2.00
2023-02-14T22:01:28.566Z,2.05
2023-02-14T22:03:52.242Z,2.00
2023-02-14T22:06:15.029Z,1.92
2023-02-14T22:08:42.084Z,1.93
2023-02-14T22:11:10.066Z,1.96
2023-02-14T22:13:34.789Z,1.93
2023-02-14T22:16:10.625Z,1.98
2023-02-14T22:18:33.605Z,1.99
2023-02-14T22:21:04.408Z,2.00
2023-02-14T22:23:30.019Z,1.96
2023-02-14T22:25:52.828Z,1.98
2023-02-14T22:28:18.470Z,1.89
2023-02-14T22:30:41.911Z,1.87
2023-02-14T22:33:05.805Z,1.93
2023-02-14T22:35:28.443Z,1.91
2023-02-14T22:37:51.290Z,1.89
2023-02-14T22:40:13.818Z,1.91
2023-02-14T22:42:36.980Z,1.87
2023-02-14T22:44:59.698Z,1.91
2023-02-14T22:47:23.814Z,1.83
2023-02-14T22:49:49.869Z,1.76
2023-02-14T22:52:13.491Z,1.75
2023-02-14T22:54:36.066Z,1.76
2023-02-14T22:57:02.306Z,1.72
2023-02-14T22:59:28.544Z,1.83
2023-02-14T23:01:53.187Z,1.86
2023-02-14T23:04:18.225Z,1.89
2023-02-14T23:06:41.521Z,1.87
2023-02-14T23:09:06.102Z,1.76
2023-02-14T23:11:31.169Z,1.72
2023-02-14T23:14:13.181Z,1.69
2023-02-14T23:16:54.724Z,1.62
2023-02-14T23:19:48.323Z,1.52
2023-02-14T23:22:21.559Z,1.64
2023-02-14T23:24:46.621Z,1.61
2023-02-14T23:27:10.039Z,1.61
2023-02-14T23:29:34.564Z,1.62
2023-02-14T23:31:59.714Z,1.59
2023-02-14T23:34:31.833Z,1.62
2023-02-14T23:36:58.985Z,1.55
2023-02-14T23:39:22.399Z,1.56
2023-02-14T23:41:48.465Z,1.56
2023-02-14T23:44:11.342Z,1.50
2023-02-14T23:46:34.730Z,1.43
2023-02-14T23:48:57.679Z,1.43
2023-02-14T23:51:20.410Z,1.41
2023-02-14T23:53:43.127Z,1.41
2023-02-14T23:56:06.062Z,1.51
2023-02-14T23:58:29.136Z,1.43
